sensor_id;sensor_type;location;lat;lon;timestamp;pressure;altitude;pressure_sealevel;temperature;humidity
71976;BME280;68326;52.124;5.424;2023-04-03T00:01:53;103107.06;;;4.63;68.61
71976;BME280;68326;52.124;5.424;2023-04-03T00:04:19;103100.97;;;4.56;67.33
71976;BME280;68326;52.124;5.424;2023-04-03T00:06:46;103112.09;;;4.49;68.34
71976;BME280;68326;52.124;5.424;2023-04-03T00:09:12;103108.66;;;4.50;68.90
71976;BME280;68326;52.124;5.424;2023-04-03T00:11:39;103108.66;;;4.52;68.13
71976;BME280;68326;52.124;5.424;2023-04-03T00:14:05;103112.94;;;4.49;67.25
71976;BME280;68326;52.124;5.424;2023-04-03T00:16:32;103115.53;;;4.49;67.65
71976;BME280;68326;52.124;5.424;2023-04-03T00:18:59;103112.94;;;4.46;69.31
71976;BME280;68326;52.124;5.424;2023-04-03T00:21:25;103111.97;;;4.40;67.04
71976;BME280;68326;52.124;5.424;2023-04-03T00:23:52;103116.22;;;4.38;68.29
71976;BME280;68326;52.124;5.424;2023-04-03T00:26:18;103111.97;;;4.40;67.99
71976;BME280;68326;52.124;5.424;2023-04-03T00:28:45;103113.59;;;4.33;67.59
71976;BME280;68326;52.124;5.424;2023-04-03T00:31:14;103119.66;;;4.34;68.43
71976;BME280;68326;52.124;5.424;2023-04-03T00:33:41;103113.53;;;4.27;69.42
71976;BME280;68326;52.124;5.424;2023-04-03T00:36:09;103117.00;;;4.27;69.84
71976;BME280;68326;52.124;5.424;2023-04-03T00:38:36;103119.56;;;4.27;68.76
71976;BME280;68326;52.124;5.424;2023-04-03T00:41:03;103122.13;;;4.29;70.17
71976;BME280;68326;52.124;5.424;2023-04-03T00:43:29;103125.63;;;4.33;69.82
71976;BME280;68326;52.124;5.424;2023-04-03T00:45:58;103128.22;;;4.34;69.75
71976;BME280;68326;52.124;5.424;2023-04-03T00:51:01;103127.28;;;4.27;69.32
71976;BME280;68326;52.124;5.424;2023-04-03T00:53:35;103128.97;;;4.25;70.06
71976;BME280;68326;52.124;5.424;2023-04-03T00:56:06;103130.69;;;4.26;70.67
71976;BME280;68326;52.124;5.424;2023-04-03T00:58:37;103132.38;;;4.21;69.84
71976;BME280;68326;52.124;5.424;2023-04-03T01:01:08;103124.56;;;4.15;71.30
71976;BME280;68326;52.124;5.424;2023-04-03T01:03:37;103137.38;;;4.12;71.04
71976;BME280;68326;52.124;5.424;2023-04-03T01:06:04;103140.84;;;4.13;70.46
71976;BME280;68326;52.124;5.424;2023-04-03T01:08:31;103136.53;;;4.12;70.92
71976;BME280;68326;52.124;5.424;2023-04-03T01:10:57;103132.13;;;4.04;70.28
71976;BME280;68326;52.124;5.424;2023-04-03T01:13:26;103137.22;;;4.01;71.39
71976;BME280;68326;52.124;5.424;2023-04-03T01:15:53;103139.78;;;3.98;71.24
71976;BME280;68326;52.124;5.424;2023-04-03T01:18:23;103132.03;;;3.97;70.96
71976;BME280;68326;52.124;5.424;2023-04-03T01:24:00;103141.50;;;3.99;71.80
71976;BME280;68326;52.124;5.424;2023-04-03T01:26:33;103144.91;;;3.97;72.78
71976;BME280;68326;52.124;5.424;2023-04-03T01:29:00;103142.25;;;3.92;71.80
71976;BME280;68326;52.124;5.424;2023-04-03T01:34:02;103141.41;;;3.92;72.39
71976;BME280;68326;52.124;5.424;2023-04-03T01:36:30;103141.34;;;3.88;71.37
71976;BME280;68326;52.124;5.424;2023-04-03T01:38:58;103140.44;;;3.86;72.14
71976;BME280;68326;52.124;5.424;2023-04-03T01:41:26;103137.06;;;3.87;72.75
71976;BME280;68326;52.124;5.424;2023-04-03T01:43:53;103139.59;;;3.86;72.68
71976;BME280;68326;52.124;5.424;2023-04-03T01:46:20;103131.84;;;3.84;73.49
71976;BME280;68326;52.124;5.424;2023-04-03T01:48:47;103134.38;;;3.81;73.39
71976;BME280;68326;52.124;5.424;2023-04-03T01:51:14;103137.78;;;3.80;73.50
71976;BME280;68326;52.124;5.424;2023-04-03T01:53:40;103135.22;;;3.79;74.25
71976;BME280;68326;52.124;5.424;2023-04-03T01:56:07;103140.28;;;3.74;73.92
71976;BME280;68326;52.124;5.424;2023-04-03T01:58:33;103134.22;;;3.71;73.72
71976;BME280;68326;52.124;5.424;2023-04-03T02:01:00;103141.91;;;3.69;74.53
71976;BME280;68326;52.124;5.424;2023-04-03T02:03:27;103134.09;;;3.63;74.17
71976;BME280;68326;52.124;5.424;2023-04-03T02:05:54;103144.41;;;3.64;74.30
71976;BME280;68326;52.124;5.424;2023-04-03T02:08:20;103142.72;;;3.65;74.25
71976;BME280;68326;52.124;5.424;2023-04-03T02:10:48;103150.41;;;3.62;74.73
71976;BME280;68326;52.124;5.424;2023-04-03T02:13:16;103152.06;;;3.60;75.80
71976;BME280;68326;52.124;5.424;2023-04-03T02:15:42;103148.63;;;3.58;74.05
71976;BME280;68326;52.124;5.424;2023-04-03T02:18:09;103153.78;;;3.59;74.54
71976;BME280;68326;52.124;5.424;2023-04-03T02:20:36;103158.13;;;3.62;74.80
71976;BME280;68326;52.124;5.424;2023-04-03T02:23:03;103165.00;;;3.63;74.34
71976;BME280;68326;52.124;5.424;2023-04-03T02:25:31;103153.78;;;3.61;75.00
71976;BME280;68326;52.124;5.424;2023-04-03T02:27:57;103157.19;;;3.58;75.77
71976;BME280;68326;52.124;5.424;2023-04-03T02:30:24;103152.91;;;3.57;75.62
71976;BME280;68326;52.124;5.424;2023-04-03T02:32:51;103154.59;;;3.55;75.79
71976;BME280;68326;52.124;5.424;2023-04-03T02:35:18;103146.75;;;3.51;75.79
71976;BME280;68326;52.124;5.424;2023-04-03T02:37:45;103146.69;;;3.44;75.59
71976;BME280;68326;52.124;5.424;2023-04-03T02:40:12;103155.19;;;3.42;75.19
71976;BME280;68326;52.124;5.424;2023-04-03T02:42:38;103152.56;;;3.37;75.84
71976;BME280;68326;52.124;5.424;2023-04-03T02:45:05;103155.03;;;3.31;74.51
71976;BME280;68326;52.124;5.424;2023-04-03T02:47:32;103158.38;;;3.27;75.65
71976;BME280;68326;52.124;5.424;2023-04-03T02:49:58;103166.09;;;3.27;76.15
71976;BME280;68326;52.124;5.424;2023-04-03T02:52:24;103161.00;;;3.29;76.92
71976;BME280;68326;52.124;5.424;2023-04-03T02:54:51;103178.97;;;3.27;77.30
71976;BME280;68326;52.124;5.424;2023-04-03T02:57:17;103177.16;;;3.23;76.29
71976;BME280;68326;52.124;5.424;2023-04-03T02:59:45;103176.38;;;3.25;77.95
71976;BME280;68326;52.124;5.424;2023-04-03T03:02:12;103184.00;;;3.21;76.69
71976;BME280;68326;52.124;5.424;2023-04-03T03:04:38;103179.63;;;3.15;77.52
71976;BME280;68326;52.124;5.424;2023-04-03T03:07:05;103179.56;;;3.12;78.07
71976;BME280;68326;52.124;5.424;2023-04-03T03:09:31;103180.34;;;3.08;78.46
71976;BME280;68326;52.124;5.424;2023-04-03T03:11:58;103190.66;;;3.10;79.35
71976;BME280;68326;52.124;5.424;2023-04-03T03:14:25;103191.63;;;3.15;79.03
71976;BME280;68326;52.124;5.424;2023-04-03T03:16:51;103188.97;;;3.12;79.39
71976;BME280;68326;52.124;5.424;2023-04-03T03:19:18;103195.00;;;3.12;79.03
71976;BME280;68326;52.124;5.424;2023-04-03T03:21:44;103192.41;;;3.11;79.53
71976;BME280;68326;52.124;5.424;2023-04-03T03:24:11;103188.94;;;3.10;79.88
71976;BME280;68326;52.124;5.424;2023-04-03T03:26:38;103188.16;;;3.13;79.46
71976;BME280;68326;52.124;5.424;2023-04-03T03:29:04;103195.00;;;3.12;79.55
71976;BME280;68326;52.124;5.424;2023-04-03T03:31:31;103197.56;;;3.11;80.27
71976;BME280;68326;52.124;5.424;2023-04-03T03:33:57;103196.66;;;3.09;80.21
71976;BME280;68326;52.124;5.424;2023-04-03T03:36:24;103195.72;;;3.05;79.33
71976;BME280;68326;52.124;5.424;2023-04-03T03:38:50;103193.97;;;3.02;79.83
71976;BME280;68326;52.124;5.424;2023-04-03T03:41:17;103196.47;;;2.98;80.14
71976;BME280;68326;52.124;5.424;2023-04-03T03:43:44;103199.03;;;2.99;80.87
71976;BME280;68326;52.124;5.424;2023-04-03T03:46:10;103190.47;;;2.99;80.71
71976;BME280;68326;52.124;5.424;2023-04-03T03:48:37;103201.59;;;2.98;79.54
71976;BME280;68326;52.124;5.424;2023-04-03T03:51:04;103203.09;;;2.88;80.75
71976;BME280;68326;52.124;5.424;2023-04-03T03:53:30;103197.88;;;2.83;79.33
71976;BME280;68326;52.124;5.424;2023-04-03T03:55:57;103199.47;;;2.78;80.59
71976;BME280;68326;52.124;5.424;2023-04-03T03:58:23;103199.47;;;2.78;80.16
71976;BME280;68326;52.124;5.424;2023-04-03T04:00:50;103192.66;;;2.80;80.44
71976;BME280;68326;52.124;5.424;2023-04-03T04:03:16;103203.03;;;2.83;81.25
71976;BME280;68326;52.124;5.424;2023-04-03T04:05:43;103203.88;;;2.84;80.84
71976;BME280;68326;52.124;5.424;2023-04-03T04:08:09;103202.16;;;2.84;80.65
71976;BME280;68326;52.124;5.424;2023-04-03T04:10:37;103205.63;;;2.85;81.36
71976;BME280;68326;52.124;5.424;2023-04-03T04:13:03;103202.97;;;2.82;80.24
71976;BME280;68326;52.124;5.424;2023-04-03T04:15:30;103203.84;;;2.81;79.42
71976;BME280;68326;52.124;5.424;2023-04-03T04:17:57;103218.38;;;2.79;80.16
71976;BME280;68326;52.124;5.424;2023-04-03T04:20:23;103218.22;;;2.73;81.38
71976;BME280;68326;52.124;5.424;2023-04-03T04:22:50;103216.53;;;2.73;80.79
71976;BME280;68326;52.124;5.424;2023-04-03T04:25:17;103214.81;;;2.72;80.74
71976;BME280;68326;52.124;5.424;2023-04-03T04:27:43;103213.09;;;2.73;80.26
71976;BME280;68326;52.124;5.424;2023-04-03T04:30:10;103219.97;;;2.74;81.46
71976;BME280;68326;52.124;5.424;2023-04-03T04:32:37;103214.88;;;2.77;81.02
71976;BME280;68326;52.124;5.424;2023-04-03T04:35:04;103219.19;;;2.76;80.83
71976;BME280;68326;52.124;5.424;2023-04-03T04:37:31;103218.19;;;2.71;81.99
71976;BME280;68326;52.124;5.424;2023-04-03T04:39:57;103218.16;;;2.70;80.22
71976;BME280;68326;52.124;5.424;2023-04-03T04:42:24;103217.25;;;2.66;81.33
71976;BME280;68326;52.124;5.424;2023-04-03T04:44:50;103223.22;;;2.65;81.86
71976;BME280;68326;52.124;5.424;2023-04-03T04:47:17;103230.00;;;2.63;82.49
71976;BME280;68326;52.124;5.424;2023-04-03T04:49:43;103225.69;;;2.60;81.17
71976;BME280;68326;52.124;5.424;2023-04-03T04:52:10;103230.88;;;2.62;81.61
71976;BME280;68326;52.124;5.424;2023-04-03T04:54:36;103221.34;;;2.58;81.80
71976;BME280;68326;52.124;5.424;2023-04-03T04:57:03;103229.88;;;2.57;82.82
71976;BME280;68326;52.124;5.424;2023-04-03T04:59:29;103224.66;;;2.52;81.89
71976;BME280;68326;52.124;5.424;2023-04-03T05:01:56;103222.97;;;2.54;82.77
71976;BME280;68326;52.124;5.424;2023-04-03T05:04:22;103229.88;;;2.55;82.77
71976;BME280;68326;52.124;5.424;2023-04-03T05:06:49;103231.53;;;2.55;80.97
71976;BME280;68326;52.124;5.424;2023-04-03T05:09:16;103225.41;;;2.48;81.87
71976;BME280;68326;52.124;5.424;2023-04-03T05:11:42;103231.31;;;2.44;81.76
71976;BME280;68326;52.124;5.424;2023-04-03T05:14:09;103236.47;;;2.44;81.79
71976;BME280;68326;52.124;5.424;2023-04-03T05:16:36;103236.53;;;2.47;81.73
71976;BME280;68326;52.124;5.424;2023-04-03T05:19:02;103234.78;;;2.46;81.15
71976;BME280;68326;52.124;5.424;2023-04-03T05:21:29;103236.50;;;2.45;81.71
71976;BME280;68326;52.124;5.424;2023-04-03T05:24:01;103237.44;;;2.49;81.89
71976;BME280;68326;52.124;5.424;2023-04-03T05:26:30;103239.84;;;2.41;81.37
71976;BME280;68326;52.124;5.424;2023-04-03T05:28:57;103241.50;;;2.39;82.63
71976;BME280;68326;52.124;5.424;2023-04-03T05:31:23;103249.25;;;2.41;81.87
71976;BME280;68326;52.124;5.424;2023-04-03T05:33:50;103251.88;;;2.44;81.65
71976;BME280;68326;52.124;5.424;2023-04-03T05:36:16;103248.53;;;2.48;82.12
71976;BME280;68326;52.124;5.424;2023-04-03T05:38:43;103248.59;;;2.50;81.34
71976;BME280;68326;52.124;5.424;2023-04-03T05:41:10;103249.44;;;2.50;81.80
71976;BME280;68326;52.124;5.424;2023-04-03T05:43:36;103252.97;;;2.54;81.82
71976;BME280;68326;52.124;5.424;2023-04-03T05:46:12;103251.25;;;2.54;81.18
71976;BME280;68326;52.124;5.424;2023-04-03T05:48:39;103262.38;;;2.55;81.49
71976;BME280;68326;52.124;5.424;2023-04-03T05:51:07;103258.25;;;2.60;80.99
71976;BME280;68326;52.124;5.424;2023-04-03T05:53:39;103271.19;;;2.64;81.18
71976;BME280;68326;52.124;5.424;2023-04-03T05:56:06;103261.81;;;2.67;80.72
71976;BME280;68326;52.124;5.424;2023-04-03T05:58:33;103271.28;;;2.69;81.33
71976;BME280;68326;52.124;5.424;2023-04-03T06:00:59;103262.78;;;2.73;81.50
71976;BME280;68326;52.124;5.424;2023-04-03T06:03:26;103268.81;;;2.74;81.60
71976;BME280;68326;52.124;5.424;2023-04-03T06:05:53;103273.94;;;2.74;81.36
71976;BME280;68326;52.124;5.424;2023-04-03T06:08:19;103276.59;;;2.78;81.07
71976;BME280;68326;52.124;5.424;2023-04-03T06:10:46;103280.06;;;2.80;81.17
71976;BME280;68326;52.124;5.424;2023-04-03T06:13:12;103277.56;;;2.82;80.79
71976;BME280;68326;52.124;5.424;2023-04-03T06:15:39;103280.22;;;2.86;80.77
71976;BME280;68326;52.124;5.424;2023-04-03T06:18:06;103286.25;;;2.89;79.94
71976;BME280;68326;52.124;5.424;2023-04-03T06:20:33;103281.28;;;2.96;80.17
71976;BME280;68326;52.124;5.424;2023-04-03T06:22:59;103282.22;;;3.01;79.25
71976;BME280;68326;52.124;5.424;2023-04-03T06:25:26;103285.91;;;3.13;80.19
71976;BME280;68326;52.124;5.424;2023-04-03T06:27:52;103280.94;;;3.22;78.79
71976;BME280;68326;52.124;5.424;2023-04-03T06:30:21;103287.06;;;3.29;79.52
71976;BME280;68326;52.124;5.424;2023-04-03T06:32:48;103282.91;;;3.34;78.34
71976;BME280;68326;52.124;5.424;2023-04-03T06:35:15;103288.94;;;3.37;77.46
71976;BME280;68326;52.124;5.424;2023-04-03T06:37:42;103289.06;;;3.43;77.65
71976;BME280;68326;52.124;5.424;2023-04-03T06:40:18;103293.53;;;3.52;78.47
71976;BME280;68326;52.124;5.424;2023-04-03T06:42:46;103301.44;;;3.61;78.58
71976;BME280;68326;52.124;5.424;2023-04-03T06:45:13;103303.41;;;3.78;77.24
71976;BME280;68326;52.124;5.424;2023-04-03T06:47:39;103302.75;;;3.88;76.53
71976;BME280;68326;52.124;5.424;2023-04-03T06:50:06;103312.16;;;3.86;76.32
71976;BME280;68326;52.124;5.424;2023-04-03T06:52:33;103306.16;;;3.85;76.63
71976;BME280;68326;52.124;5.424;2023-04-03T06:54:59;103307.03;;;3.87;77.00
71976;BME280;68326;52.124;5.424;2023-04-03T06:57:26;103310.53;;;3.93;76.59
71976;BME280;68326;52.124;5.424;2023-04-03T06:59:53;103318.31;;;3.94;75.74
71976;BME280;68326;52.124;5.424;2023-04-03T07:02:19;103320.91;;;3.97;76.73
71976;BME280;68326;52.124;5.424;2023-04-03T07:04:47;103329.84;;;4.15;76.56
71976;BME280;68326;52.124;5.424;2023-04-03T07:07:14;103330.72;;;4.18;75.12
71976;BME280;68326;52.124;5.424;2023-04-03T07:09:41;103333.31;;;4.18;76.48
71976;BME280;68326;52.124;5.424;2023-04-03T07:12:10;103326.69;;;4.34;75.20
71976;BME280;68326;52.124;5.424;2023-04-03T07:14:37;103333.75;;;4.44;74.90
71976;BME280;68326;52.124;5.424;2023-04-03T07:17:03;103330.38;;;4.50;73.53
71976;BME280;68326;52.124;5.424;2023-04-03T07:19:30;103334.69;;;4.53;72.94
71976;BME280;68326;52.124;5.424;2023-04-03T07:21:57;103333.94;;;4.58;72.74
71976;BME280;68326;52.124;5.424;2023-04-03T07:24:23;103336.66;;;4.69;72.11
71976;BME280;68326;52.124;5.424;2023-04-03T07:26:51;103335.16;;;4.83;73.61
71976;BME280;68326;52.124;5.424;2023-04-03T07:29:18;103340.47;;;4.94;73.29
71976;BME280;68326;52.124;5.424;2023-04-03T07:31:47;103334.63;;;5.09;71.22
71976;BME280;68326;52.124;5.424;2023-04-03T07:34:14;103343.28;;;5.13;71.38
71976;BME280;68326;52.124;5.424;2023-04-03T07:36:41;103347.72;;;5.23;70.11
71976;BME280;68326;52.124;5.424;2023-04-03T07:39:07;103341.69;;;5.21;70.59
71976;BME280;68326;52.124;5.424;2023-04-03T07:41:34;103344.31;;;5.25;70.02
71976;BME280;68326;52.124;5.424;2023-04-03T07:44:00;103348.88;;;5.46;70.32
71976;BME280;68326;52.124;5.424;2023-04-03T07:46:27;103353.28;;;5.55;68.87
71976;BME280;68326;52.124;5.424;2023-04-03T07:48:54;103349.78;;;5.55;68.58
71976;BME280;68326;52.124;5.424;2023-04-03T07:51:23;103352.53;;;5.65;68.53
71976;BME280;68326;52.124;5.424;2023-04-03T07:53:50;103347.31;;;5.62;66.78
71976;BME280;68326;52.124;5.424;2023-04-03T07:56:17;103350.91;;;5.77;67.48
71976;BME280;68326;52.124;5.424;2023-04-03T07:58:43;103353.63;;;5.90;66.75
71976;BME280;68326;52.124;5.424;2023-04-03T08:01:10;103346.75;;;5.94;64.50
71976;BME280;68326;52.124;5.424;2023-04-03T08:03:38;103348.63;;;6.04;65.41
71976;BME280;68326;52.124;5.424;2023-04-03T08:06:06;103343.22;;;5.84;64.51
71976;BME280;68326;52.124;5.424;2023-04-03T08:08:41;103344.34;;;6.08;67.26
71976;BME280;68326;52.124;5.424;2023-04-03T08:11:07;103348.72;;;6.15;64.39
71976;BME280;68326;52.124;5.424;2023-04-03T08:13:34;103356.69;;;6.40;61.99
71976;BME280;68326;52.124;5.424;2023-04-03T08:16:09;103352.41;;;6.46;64.10
71976;BME280;68326;52.124;5.424;2023-04-03T08:18:37;103361.19;;;6.65;62.37
71976;BME280;68326;52.124;5.424;2023-04-03T08:21:08;103355.28;;;6.91;61.47
71976;BME280;68326;52.124;5.424;2023-04-03T08:23:35;103350.19;;;7.06;59.65
71976;BME280;68326;52.124;5.424;2023-04-03T08:26:12;103358.00;;;7.17;59.09
71976;BME280;68326;52.124;5.424;2023-04-03T08:28:39;103364.09;;;7.27;58.98
71976;BME280;68326;52.124;5.424;2023-04-03T08:31:09;103361.47;;;7.24;56.16
71976;BME280;68326;52.124;5.424;2023-04-03T08:33:38;103368.41;;;7.25;56.50
71976;BME280;68326;52.124;5.424;2023-04-03T08:36:07;103367.59;;;7.38;51.69
71976;BME280;68326;52.124;5.424;2023-04-03T08:38:34;103369.38;;;7.53;56.34
71976;BME280;68326;52.124;5.424;2023-04-03T08:43:47;103376.28;;;7.52;52.85
71976;BME280;68326;52.124;5.424;2023-04-03T08:46:22;103378.03;;;7.57;50.61
71976;BME280;68326;52.124;5.424;2023-04-03T08:48:50;103375.44;;;7.66;53.38
71976;BME280;68326;52.124;5.424;2023-04-03T08:51:20;103372.00;;;7.65;50.68
71976;BME280;68326;52.124;5.424;2023-04-03T08:53:58;103382.44;;;7.97;48.74
71976;BME280;68326;52.124;5.424;2023-04-03T08:56:27;103377.25;;;8.08;47.59
71976;BME280;68326;52.124;5.424;2023-04-03T08:59:14;103376.38;;;8.38;47.81
71976;BME280;68326;52.124;5.424;2023-04-03T09:01:43;103373.78;;;8.38;46.57
71976;BME280;68326;52.124;5.424;2023-04-03T09:04:15;103372.94;;;8.52;45.76
71976;BME280;68326;52.124;5.424;2023-04-03T09:06:45;103372.06;;;8.70;46.20
71976;BME280;68326;52.124;5.424;2023-04-03T09:09:15;103362.56;;;8.40;45.15
71976;BME280;68326;52.124;5.424;2023-04-03T09:12:06;103353.94;;;8.47;44.17
71976;BME280;68326;52.124;5.424;2023-04-03T09:14:52;103359.03;;;8.90;46.12
71976;BME280;68326;52.124;5.424;2023-04-03T09:20:38;103372.00;;;9.04;43.11
71976;BME280;68326;52.124;5.424;2023-04-03T09:23:19;103362.44;;;9.10;41.76
71976;BME280;68326;52.124;5.424;2023-04-03T09:25:48;103365.84;;;9.20;40.06
71976;BME280;68326;52.124;5.424;2023-04-03T09:28:16;103364.13;;;9.25;38.51
71976;BME280;68326;52.124;5.424;2023-04-03T09:30:42;103373.59;;;9.40;42.31
71976;BME280;68326;52.124;5.424;2023-04-03T09:33:09;103369.13;;;9.65;40.18
71976;BME280;68326;52.124;5.424;2023-04-03T09:35:40;103362.09;;;9.79;36.82
71976;BME280;68326;52.124;5.424;2023-04-03T09:38:17;103355.19;;;9.74;38.69
71976;BME280;68326;52.124;5.424;2023-04-03T09:40:47;103356.06;;;9.74;37.92
71976;BME280;68326;52.124;5.424;2023-04-03T09:45:45;103350.66;;;10.04;37.46
71976;BME280;68326;52.124;5.424;2023-04-03T09:53:43;103338.59;;;9.92;38.13
71976;BME280;68326;52.124;5.424;2023-04-03T10:01:41;103335.53;;;10.49;38.00
71976;BME280;68326;52.124;5.424;2023-04-03T10:04:17;103331.03;;;10.65;37.13
71976;BME280;68326;52.124;5.424;2023-04-03T10:06:50;103321.47;;;10.68;34.83
71976;BME280;68326;52.124;5.424;2023-04-03T10:12:06;103314.88;;;10.32;37.36
71976;BME280;68326;52.124;5.424;2023-04-03T10:14:37;103314.78;;;10.41;38.08
71976;BME280;68326;52.124;5.424;2023-04-03T10:17:18;103322.69;;;10.33;35.28
71976;BME280;68326;52.124;5.424;2023-04-03T10:20:11;103322.66;;;10.36;37.23
71976;BME280;68326;52.124;5.424;2023-04-03T10:25:20;103306.97;;;10.44;35.34
71976;BME280;68326;52.124;5.424;2023-04-03T10:30:57;103296.53;;;11.20;34.74
71976;BME280;68326;52.124;5.424;2023-04-03T10:33:39;103299.00;;;11.29;36.01
71976;BME280;68326;52.124;5.424;2023-04-03T10:41:50;103272.94;;;11.85;34.09
71976;BME280;68326;52.124;5.424;2023-04-03T10:47:47;103274.28;;;11.55;33.37
71976;BME280;68326;52.124;5.424;2023-04-03T10:53:01;103278.84;;;11.98;36.26
71976;BME280;68326;52.124;5.424;2023-04-03T10:55:42;103262.03;;;12.14;34.41
71976;BME280;68326;52.124;5.424;2023-04-03T10:58:27;103272.03;;;12.39;34.65
71976;BME280;68326;52.124;5.424;2023-04-03T11:01:07;103266.44;;;12.57;33.78
71976;BME280;68326;52.124;5.424;2023-04-03T11:03:38;103257.81;;;12.54;33.75
71976;BME280;68326;52.124;5.424;2023-04-03T11:06:10;103260.63;;;12.87;33.99
71976;BME280;68326;52.124;5.424;2023-04-03T11:08:53;103261.13;;;13.04;34.75
71976;BME280;68326;52.124;5.424;2023-04-03T11:11:30;103266.34;;;12.15;34.23
71976;BME280;68326;52.124;5.424;2023-04-03T11:14:33;103260.41;;;11.53;34.69
71976;BME280;68326;52.124;5.424;2023-04-03T11:20:03;103252.31;;;12.22;36.19
71976;BME280;68326;52.124;5.424;2023-04-03T11:22:39;103256.22;;;11.98;32.76
71976;BME280;68326;52.124;5.424;2023-04-03T11:27:57;103251.22;;;12.34;36.75
71976;BME280;68326;52.124;5.424;2023-04-03T11:30:43;103256.19;;;12.47;35.88
71976;BME280;68326;52.124;5.424;2023-04-03T11:33:40;103255.91;;;12.15;35.95
71976;BME280;68326;52.124;5.424;2023-04-03T11:36:12;103253.16;;;12.23;34.88
71976;BME280;68326;52.124;5.424;2023-04-03T11:38:58;103248.06;;;12.62;32.98
71976;BME280;68326;52.124;5.424;2023-04-03T11:41:31;103254.59;;;12.39;31.23
71976;BME280;68326;52.124;5.424;2023-04-03T11:44:01;103245.22;;;12.29;34.78
71976;BME280;68326;52.124;5.424;2023-04-03T11:46:51;103240.03;;;12.71;34.64
71976;BME280;68326;52.124;5.424;2023-04-03T12:00:46;103244.72;;;13.36;33.99
71976;BME280;68326;52.124;5.424;2023-04-03T12:16:04;103218.94;;;13.19;31.48
71976;BME280;68326;52.124;5.424;2023-04-03T12:21:17;103208.38;;;12.44;33.31
71976;BME280;68326;52.124;5.424;2023-04-03T12:26:34;103206.22;;;12.65;34.24
71976;BME280;68326;52.124;5.424;2023-04-03T12:29:27;103205.50;;;12.97;33.35
71976;BME280;68326;52.124;5.424;2023-04-03T12:32:11;103185.72;;;13.24;33.16
71976;BME280;68326;52.124;5.424;2023-04-03T12:43:25;103180.69;;;13.15;32.94
71976;BME280;68326;52.124;5.424;2023-04-03T12:51:06;103171.22;;;13.47;33.23
71976;BME280;68326;52.124;5.424;2023-04-03T12:53:35;103168.81;;;13.00;34.06
71976;BME280;68326;52.124;5.424;2023-04-03T12:58:51;103154.19;;;12.93;33.39
71976;BME280;68326;52.124;5.424;2023-04-03T13:01:21;103164.53;;;12.98;34.26
71976;BME280;68326;52.124;5.424;2023-04-03T13:03:52;103152.56;;;12.88;35.17
71976;BME280;68326;52.124;5.424;2023-04-03T13:06:25;103155.16;;;12.89;34.61
71976;BME280;68326;52.124;5.424;2023-04-03T13:08:56;103157.97;;;12.81;34.69
71976;BME280;68326;52.124;5.424;2023-04-03T13:11:30;103152.81;;;12.77;33.42
71976;BME280;68326;52.124;5.424;2023-04-03T13:14:05;103138.94;;;12.34;33.37
71976;BME280;68326;52.124;5.424;2023-04-03T13:16:33;103149.47;;;12.72;34.73
71976;BME280;68326;52.124;5.424;2023-04-03T13:19:00;103136.63;;;13.00;33.48
71976;BME280;68326;52.124;5.424;2023-04-03T13:21:31;103138.34;;;13.01;33.61
71976;BME280;68326;52.124;5.424;2023-04-03T13:24:01;103145.41;;;12.96;35.91
71976;BME280;68326;52.124;5.424;2023-04-03T13:26:41;103131.63;;;12.91;32.31
71976;BME280;68326;52.124;5.424;2023-04-03T13:29:22;103140.41;;;12.87;35.09
71976;BME280;68326;52.124;5.424;2023-04-03T13:31:56;103129.28;;;13.16;34.02
71976;BME280;68326;52.124;5.424;2023-04-03T13:34:26;103125.31;;;13.37;32.95
71976;BME280;68326;52.124;5.424;2023-04-03T13:39:27;103125.88;;;13.81;33.80
71976;BME280;68326;52.124;5.424;2023-04-03T13:41:59;103134.53;;;13.83;33.40
71976;BME280;68326;52.124;5.424;2023-04-03T13:44:30;103132.19;;;13.74;33.48
71976;BME280;68326;52.124;5.424;2023-04-03T13:49:40;103136.63;;;14.03;35.58
71976;BME280;68326;52.124;5.424;2023-04-03T13:52:30;103122.00;;;14.25;32.97
71976;BME280;68326;52.124;5.424;2023-04-03T13:55:02;103136.78;;;14.28;32.91
71976;BME280;68326;52.124;5.424;2023-04-03T13:57:33;103127.66;;;13.79;33.01
71976;BME280;68326;52.124;5.424;2023-04-03T14:00:00;103129.28;;;13.84;32.94
71976;BME280;68326;52.124;5.424;2023-04-03T14:02:32;103130.47;;;14.04;31.82
71976;BME280;68326;52.124;5.424;2023-04-03T14:05:00;103129.28;;;13.84;32.17
71976;BME280;68326;52.124;5.424;2023-04-03T14:07:29;103119.88;;;13.77;31.25
71976;BME280;68326;52.124;5.424;2023-04-03T14:09:57;103125.50;;;13.95;33.47
71976;BME280;68326;52.124;5.424;2023-04-03T14:12:35;103126.31;;;14.28;32.77
71976;BME280;68326;52.124;5.424;2023-04-03T14:15:10;103122.00;;;14.25;31.97
71976;BME280;68326;52.124;5.424;2023-04-03T14:17:38;103110.00;;;14.18;32.06
71976;BME280;68326;52.124;5.424;2023-04-03T14:20:05;103108.22;;;14.19;32.17
71976;BME280;68326;52.124;5.424;2023-04-03T14:22:33;103101.03;;;13.96;31.54
71976;BME280;68326;52.124;5.424;2023-04-03T14:25:01;103096.69;;;13.63;32.63
71976;BME280;68326;52.124;5.424;2023-04-03T14:27:39;103091.63;;;13.57;32.56
71976;BME280;68326;52.124;5.424;2023-04-03T14:30:12;103092.59;;;13.53;32.77
71976;BME280;68326;52.124;5.424;2023-04-03T14:32:39;103090.41;;;13.36;34.56
71976;BME280;68326;52.124;5.424;2023-04-03T14:35:06;103085.31;;;12.96;32.82
71976;BME280;68326;52.124;5.424;2023-04-03T14:37:34;103082.63;;;12.24;33.01
71976;BME280;68326;52.124;5.424;2023-04-03T14:40:03;103080.34;;;12.48;36.25
71976;BME280;68326;52.124;5.424;2023-04-03T14:42:33;103078.50;;;13.24;35.76
71976;BME280;68326;52.124;5.424;2023-04-03T14:45:03;103083.63;;;13.62;35.39
71976;BME280;68326;52.124;5.424;2023-04-03T14:47:30;103080.91;;;13.98;34.06
71976;BME280;68326;52.124;5.424;2023-04-03T14:50:00;103083.63;;;13.95;33.34
71976;BME280;68326;52.124;5.424;2023-04-03T14:52:30;103076.72;;;13.92;33.61
71976;BME280;68326;52.124;5.424;2023-04-03T14:54:57;103076.56;;;13.65;31.56